Time;durP1;ratioP1;P1;durP2;ratioP2;P2;SDS_P1;SDS_P2;PMS_P1;PMS_P2;Temp;Humidity;BMP_temperature;BMP_pressure;BME280_temperature;BME280_humidity;BME280_pressure;Samples;Min_cycle;Max_cycle;Signal;HPM_P1;HPM_P2
2023/10/15 00:02:15;;;;;;;;;;;;;;;;;;6139547;23;20007;-88
2023/10/15 00:04:41;;;;;;;;;;;;;;;;;;6142565;23;19994;-89
2023/10/15 00:07:07;;;;;;;;;;;;;;;;;;6116991;23;20003;-89
2023/10/15 00:09:34;;;;;;;;;;;;;;;;;;6138311;23;20268;-89
2023/10/15 00:12:00;;;;;;;;;;;;;;;;;;6116654;23;19944;-89
2023/10/15 00:14:26;;;;;;;;;;;;;;;;;;6139775;23;19960;-88
2023/10/15 00:16:52;;;;;;;;;;;;;;;;;;6138667;23;19950;-89
2023/10/15 00:19:17;;;;;;;;;;;;;;;;;;6142140;23;20310;-88
2023/10/15 00:21:43;;;;;;;;;;;;;;;;;;6139361;23;20409;-89
2023/10/15 00:24:10;;;;;;;;;;;;;;;;;;6119756;23;19920;-88
2023/10/15 00:26:36;;;;;;;;;;;;;;;;;;6116107;23;19967;-88
2023/10/15 00:29:07;;;;;;;;;;;;;;;;;;6116488;23;20293;-88
2023/10/15 00:31:33;;;;;;;;;;;;;;;;;;6141592;23;19952;-88
2023/10/15 00:33:59;;;;;;;;;;;;;;;;;;6139546;23;19994;-88
2023/10/15 00:36:24;;;;;;;;;;;;;;;;;;6141427;23;20250;-88
2023/10/15 00:38:50;;;;;;;;;;;;;;;;;;6137948;23;19935;-88
2023/10/15 00:41:16;;;;;;;;;;;;;;;;;;6117216;23;20355;-88
2023/10/15 00:43:43;;;;;;;;;;;;;;;;;;6140559;23;19924;-88
2023/10/15 00:46:13;;;;;;;;;;;;;;;;;;6146221;23;19995;-88
2023/10/15 00:48:38;;;;;;;;;;;;;;;;;;6116039;23;19920;-88
2023/10/15 00:51:08;;;;;;;;;;;;;;;;;;6144939;23;19924;-88
2023/10/15 00:53:34;;;;;;;;;;;;;;;;;;6143392;23;19928;-88
2023/10/15 00:56:04;;;;;;;;;;;;;;;;;;6145422;23;19921;-88
2023/10/15 00:58:43;;;;;;;;;;;;;;;;;;6144688;23;19920;-88
2023/10/15 01:03:53;;;;;;;;;;;;;;;;;;6138476;23;19978;-88
2023/10/15 01:06:55;;;;;;;;;;;;;;;;;;6143644;23;19920;-88
2023/10/15 01:09:27;;;;;;;;;;;;;;;;;;6142668;23;19928;-88
2023/10/15 01:11:56;;;;;;;;;;;;;;;;;;6135489;23;19920;-89
2023/10/15 01:14:31;;;;;;;;;;;;;;;;;;6115397;23;20294;-88
2023/10/15 01:16:57;;;;;;;;;;;;;;;;;;6118086;23;19920;-88
2023/10/15 01:19:31;;;;;;;;;;;;;;;;;;6119503;23;20238;-88
2023/10/15 01:21:57;;;;;;;;;;;;;;;;;;6114641;23;20339;-88
2023/10/15 01:24:25;;;;;;;;;;;;;;;;;;6147733;23;19938;-89
2023/10/15 01:26:59;;;;;;;;;;;;;;;;;;6118483;23;19987;-89
2023/10/15 01:29:25;;;;;;;;;;;;;;;;;;6113457;23;19920;-88
2023/10/15 01:31:52;;;;;;;;;;;;;;;;;;6112412;23;19928;-88
2023/10/15 01:34:21;;;;;;;;;;;;;;;;;;6124724;23;19931;-88
2023/10/15 01:36:47;;;;;;;;;;;;;;;;;;6155852;23;19927;-89
2023/10/15 01:39:21;;;;;;;;;;;;;;;;;;6145335;23;19924;-88
2023/10/15 01:41:50;;;;;;;;;;;;;;;;;;6113974;23;20329;-89
2023/10/15 01:44:19;;;;;;;;;;;;;;;;;;6118897;23;19920;-89
2023/10/15 01:49:32;;;;;;;;;;;;;;;;;;6145286;23;19920;-88
2023/10/15 01:52:05;;;;;;;;;;;;;;;;;;6116070;23;19920;-89
2023/10/15 01:54:31;;;;;;;;;;;;;;;;;;6141048;23;19931;-89
2023/10/15 01:56:57;;;;;;;;;;;;;;;;;;6115077;23;19923;-88
2023/10/15 01:59:23;;;;;;;;;;;;;;;;;;6119558;23;19920;-88
2023/10/15 02:01:49;;;;;;;;;;;;;;;;;;6114066;23;19926;-88
2023/10/15 02:04:48;;;;;;;;;;;;;;;;;;6119579;23;19927;-89
2023/10/15 02:07:07;;;;;;;;;;;;;;;;;;6138905;23;20265;-88
2023/10/15 02:09:38;;;;;;;;;;;;;;;;;;6119759;23;19928;-88
2023/10/15 02:12:07;;;;;;;;;;;;;;;;;;6139097;23;20173;-89
2023/10/15 02:14:33;;;;;;;;;;;;;;;;;;6116715;23;19931;-88
2023/10/15 02:17:00;;;;;;;;;;;;;;;;;;6118833;23;19920;-88
2023/10/15 02:19:34;;;;;;;;;;;;;;;;;;6144153;23;19967;-88
2023/10/15 02:22:00;;;;;;;;;;;;;;;;;;6142022;23;20458;-88
2023/10/15 02:24:32;;;;;;;;;;;;;;;;;;6142338;23;20373;-88
2023/10/15 02:26:58;;;;;;;;;;;;;;;;;;6137249;23;20356;-89
2023/10/15 02:29:34;;;;;;;;;;;;;;;;;;6117692;23;20237;-88
2023/10/15 02:34:45;;;;;;;;;;;;;;;;;;6168050;23;20633;-88
2023/10/15 02:37:16;;;;;;;;;;;;;;;;;;6172653;23;19926;-88
2023/10/15 02:39:50;;;;;;;;;;;;;;;;;;6193825;23;19920;-88
2023/10/15 02:42:16;;;;;;;;;;;;;;;;;;6144579;23;19994;-88
2023/10/15 02:44:42;;;;;;;;;;;;;;;;;;6167255;23;19987;-88
2023/10/15 02:47:28;;;;;;;;;;;;;;;;;;6143469;23;19955;-88
2023/10/15 02:49:54;;;;;;;;;;;;;;;;;;6195366;23;19927;-89
2023/10/15 02:52:20;;;;;;;;;;;;;;;;;;6144820;23;19924;-88
2023/10/15 02:54:46;;;;;;;;;;;;;;;;;;6167206;23;20330;-88
2023/10/15 02:57:15;;;;;;;;;;;;;;;;;;6170684;23;19919;-88
2023/10/15 02:59:50;;;;;;;;;;;;;;;;;;6169523;23;19926;-88
2023/10/15 03:02:17;;;;;;;;;;;;;;;;;;6196950;23;20372;-88
2023/10/15 03:04:49;;;;;;;;;;;;;;;;;;6168932;23;20425;-88
2023/10/15 03:07:19;;;;;;;;;;;;;;;;;;6146107;23;20370;-88
2023/10/15 03:09:48;;;;;;;;;;;;;;;;;;6166649;23;19923;-88
2023/10/15 03:12:14;;;;;;;;;;;;;;;;;;6141122;23;19924;-88
2023/10/15 03:14:41;;;;;;;;;;;;;;;;;;6195659;23;19923;-88
2023/10/15 03:17:13;;;;;;;;;;;;;;;;;;6145691;23;20249;-88
2023/10/15 03:19:39;;;;;;;;;;;;;;;;;;6141289;23;19920;-87
2023/10/15 03:22:08;;;;;;;;;;;;;;;;;;6168412;23;20292;-88
2023/10/15 03:24:34;;;;;;;;;;;;;;;;;;6143176;23;19923;-88
2023/10/15 03:27:00;;;;;;;;;;;;;;;;;;6144005;23;19920;-88
2023/10/15 03:29:26;;;;;;;;;;;;;;;;;;6145673;23;20305;-88
2023/10/15 03:32:09;;;;;;;;;;;;;;;;;;6170604;23;19920;-88
2023/10/15 03:34:47;;;;;;;;;;;;;;;;;;6171708;23;20195;-88
2023/10/15 03:37:14;;;;;;;;;;;;;;;;;;6173728;23;19920;-88
2023/10/15 03:42:09;;;;;;;;;;;;;;;;;;6174993;23;20418;-88
2023/10/15 03:44:36;;;;;;;;;;;;;;;;;;6171766;23;20337;-88
2023/10/15 03:47:05;;;;;;;;;;;;;;;;;;6149367;23;20240;-88
2023/10/15 03:49:31;;;;;;;;;;;;;;;;;;6146370;23;19983;-88
2023/10/15 03:51:57;;;;;;;;;;;;;;;;;;6141792;23;19987;-88
2023/10/15 03:54:23;;;;;;;;;;;;;;;;;;6169394;23;19924;-88
2023/10/15 03:56:49;;;;;;;;;;;;;;;;;;6144451;23;19920;-88
2023/10/15 03:59:15;;;;;;;;;;;;;;;;;;6174978;23;19919;-88
2023/10/15 04:01:47;;;;;;;;;;;;;;;;;;6145483;23;19994;-88
2023/10/15 04:04:16;;;;;;;;;;;;;;;;;;6149296;23;19919;-88
2023/10/15 04:06:45;;;;;;;;;;;;;;;;;;6148328;23;20348;-88
2023/10/15 04:09:12;;;;;;;;;;;;;;;;;;6176036;23;19916;-88
2023/10/15 04:11:45;;;;;;;;;;;;;;;;;;6199050;23;19927;-88
2023/10/15 04:14:28;;;;;;;;;;;;;;;;;;6170701;23;20002;-88
2023/10/15 04:16:54;;;;;;;;;;;;;;;;;;6171747;23;20368;-88
2023/10/15 04:19:20;;;;;;;;;;;;;;;;;;6170325;23;19920;-89
2023/10/15 04:21:46;;;;;;;;;;;;;;;;;;6167202;23;20288;-88
2023/10/15 04:24:21;;;;;;;;;;;;;;;;;;6163244;23;19982;-89
2023/10/15 04:26:50;;;;;;;;;;;;;;;;;;6171626;23;19965;-88
2023/10/15 04:29:17;;;;;;;;;;;;;;;;;;6198858;23;19919;-88
2023/10/15 04:31:44;;;;;;;;;;;;;;;;;;6169209;23;20016;-88
2023/10/15 04:34:16;;;;;;;;;;;;;;;;;;6174083;23;19924;-88
2023/10/15 04:36:43;;;;;;;;;;;;;;;;;;6170066;23;19920;-88
2023/10/15 04:39:12;;;;;;;;;;;;;;;;;;6168471;23;19920;-89
2023/10/15 04:41:38;;;;;;;;;;;;;;;;;;6168520;23;19920;-88
2023/10/15 04:44:04;;;;;;;;;;;;;;;;;;6171780;23;19930;-88
2023/10/15 04:46:40;;;;;;;;;;;;;;;;;;6172201;23;19920;-88
2023/10/15 04:49:07;;;;;;;;;;;;;;;;;;6147434;23;20079;-88
2023/10/15 04:51:42;;;;;;;;;;;;;;;;;;6168445;23;19974;-89
2023/10/15 04:54:08;;;;;;;;;;;;;;;;;;6144228;23;19923;-89
2023/10/15 04:56:34;;;;;;;;;;;;;;;;;;6168923;23;19923;-88
2023/10/15 04:59:00;;;;;;;;;;;;;;;;;;6143954;23;19926;-88
2023/10/15 05:01:26;;;;;;;;;;;;;;;;;;6147452;23;19920;-89
2023/10/15 05:03:52;;;;;;;;;;;;;;;;;;6142457;23;20373;-89
2023/10/15 05:06:18;;;;;;;;;;;;;;;;;;6173432;23;20231;-89
2023/10/15 05:08:47;;;;;;;;;;;;;;;;;;6169751;23;19920;-88
2023/10/15 05:11:13;;;;;;;;;;;;;;;;;;6146854;23;19920;-89
2023/10/15 05:13:42;;;;;;;;;;;;;;;;;;6172682;23;20003;-88
2023/10/15 05:16:08;;;;;;;;;;;;;;;;;;6144392;23;19920;-88
2023/10/15 05:18:34;;;;;;;;;;;;;;;;;;6147286;23;19920;-88
2023/10/15 05:21:00;;;;;;;;;;;;;;;;;;6173148;23;19927;-88
2023/10/15 05:23:26;;;;;;;;;;;;;;;;;;6199242;23;20591;-88
2023/10/15 05:25:53;;;;;;;;;;;;;;;;;;6143508;23;19920;-88
2023/10/15 05:28:19;;;;;;;;;;;;;;;;;;6196479;23;20414;-88
2023/10/15 05:30:44;;;;;;;;;;;;;;;;;;6169233;23;20376;-89
2023/10/15 05:33:10;;;;;;;;;;;;;;;;;;6170854;23;19923;-88
2023/10/15 05:35:40;;;;;;;;;;;;;;;;;;6168911;23;19924;-89
2023/10/15 05:38:09;;;;;;;;;;;;;;;;;;6173663;23;19991;-89
2023/10/15 05:40:35;;;;;;;;;;;;;;;;;;6174009;23;19920;-88
2023/10/15 05:43:01;;;;;;;;;;;;;;;;;;6148046;23;19920;-89
2023/10/15 05:45:27;;;;;;;;;;;;;;;;;;6148334;23;20019;-90
2023/10/15 05:47:53;;;;;;;;;;;;;;;;;;6146642;23;19997;-89
2023/10/15 05:50:19;;;;;;;;;;;;;;;;;;6174652;23;19920;-89
2023/10/15 05:52:45;;;;;;;;;;;;;;;;;;6169106;23;19920;-89
2023/10/15 05:55:11;;;;;;;;;;;;;;;;;;6169980;23;20260;-89
2023/10/15 05:57:37;;;;;;;;;;;;;;;;;;6194388;23;19926;-89
2023/10/15 06:00:18;;;;;;;;;;;;;;;;;;6173977;23;19990;-89
2023/10/15 06:02:44;;;;;;;;;;;;;;;;;;6145729;23;19981;-89
2023/10/15 06:05:13;;;;;;;;;;;;;;;;;;6150237;23;19920;-89
2023/10/15 06:07:39;;;;;;;;;;;;;;;;;;6171768;23;20245;-89
2023/10/15 06:10:05;;;;;;;;;;;;;;;;;;6174145;23;19924;-90
2023/10/15 06:12:31;;;;;;;;;;;;;;;;;;6147744;23;20235;-89
2023/10/15 06:14:59;;;;;;;;;;;;;;;;;;6148585;23;19924;-90
2023/10/15 06:17:25;;;;;;;;;;;;;;;;;;6147668;23;20321;-90
2023/10/15 06:19:51;;;;;;;;;;;;;;;;;;6166905;23;19974;-89
2023/10/15 06:22:17;;;;;;;;;;;;;;;;;;6200486;23;19919;-90
2023/10/15 06:24:46;;;;;;;;;;;;;;;;;;6146949;23;19993;-90
2023/10/15 06:27:12;;;;;;;;;;;;;;;;;;6150095;23;20034;-89
2023/10/15 06:29:38;;;;;;;;;;;;;;;;;;6145582;23;19970;-90
2023/10/15 06:32:04;;;;;;;;;;;;;;;;;;6173167;23;19924;-90
2023/10/15 06:34:30;;;;;;;;;;;;;;;;;;6173388;23;19955;-90
2023/10/15 06:36:56;;;;;;;;;;;;;;;;;;6145329;23;19919;-90
2023/10/15 06:39:22;;;;;;;;;;;;;;;;;;6145962;23;19923;-90
2023/10/15 06:41:48;;;;;;;;;;;;;;;;;;6144320;23;20343;-91
2023/10/15 06:44:14;;;;;;;;;;;;;;;;;;6171628;23;20326;-91
2023/10/15 06:46:40;;;;;;;;;;;;;;;;;;6169497;23;19920;-90
2023/10/15 06:49:07;;;;;;;;;;;;;;;;;;6173881;23;19920;-90
2023/10/15 06:51:34;;;;;;;;;;;;;;;;;;6173374;23;19999;-91
2023/10/15 06:54:00;;;;;;;;;;;;;;;;;;6148906;23;19924;-91
2023/10/15 06:56:27;;;;;;;;;;;;;;;;;;6200186;23;19935;-90
2023/10/15 06:58:53;;;;;;;;;;;;;;;;;;6171547;23;19974;-90
2023/10/15 07:01:19;;;;;;;;;;;;;;;;;;6170756;23;19959;-91
2023/10/15 07:03:44;;;;;;;;;;;;;;;;;;6168862;23;19931;-91
2023/10/15 07:06:11;;;;;;;;;;;;;;;;;;6173856;23;19919;-91
2023/10/15 07:08:37;;;;;;;;;;;;;;;;;;6170955;23;19915;-91
2023/10/15 07:11:05;;;;;;;;;;;;;;;;;;6170033;23;19920;-90
2023/10/15 07:13:31;;;;;;;;;;;;;;;;;;6170825;23;20447;-90
2023/10/15 07:15:56;;;;;;;;;;;;;;;;;;6168008;23;20217;-90
2023/10/15 07:18:22;;;;;;;;;;;;;;;;;;6141776;23;20068;-90
2023/10/15 07:20:48;;;;;;;;;;;;;;;;;;6195969;23;20294;-89
2023/10/15 07:23:14;;;;;;;;;;;;;;;;;;6172497;23;19958;-90
2023/10/15 07:25:42;;;;;;;;;;;;;;;;;;6147807;23;19923;-90
2023/10/15 07:28:10;;;;;;;;;;;;;;;;;;6151777;23;19920;-91
2023/10/15 07:30:36;;;;;;;;;;;;;;;;;;6146243;23;19978;-90
2023/10/15 07:33:02;;;;;;;;;;;;;;;;;;6150903;23;19974;-91
2023/10/15 07:35:28;;;;;;;;;;;;;;;;;;6149289;23;20322;-91
2023/10/15 07:37:56;;;;;;;;;;;;;;;;;;6148233;23;20349;-91
2023/10/15 07:40:22;;;;;;;;;;;;;;;;;;6150729;23;19981;-90
2023/10/15 07:42:51;;;;;;;;;;;;;;;;;;6170391;23;19986;-91
2023/10/15 07:45:17;;;;;;;;;;;;;;;;;;6149520;23;19926;-90
2023/10/15 07:47:43;;;;;;;;;;;;;;;;;;6171454;23;19920;-90
2023/10/15 07:50:09;;;;;;;;;;;;;;;;;;6149245;23;19920;-90
2023/10/15 07:52:34;;;;;;;;;;;;;;;;;;6143494;23;19924;-91
2023/10/15 07:55:01;;;;;;;;;;;;;;;;;;6149062;23;20447;-90
2023/10/15 07:57:26;;;;;;;;;;;;;;;;;;6146374;23;19920;-90
2023/10/15 07:59:55;;;;;;;;;;;;;;;;;;6172278;23;19946;-89
2023/10/15 08:02:21;;;;;;;;;;;;;;;;;;6200218;23;19971;-89
2023/10/15 08:04:48;;;;;;;;;;;;;;;;;;6171456;23;20337;-89
2023/10/15 08:07:14;;;;;;;;;;;;;;;;;;6173765;23;19931;-89
2023/10/15 08:09:40;;;;;;;;;;;;;;;;;;6145455;23;19920;-90
2023/10/15 08:12:07;;;;;;;;;;;;;;;;;;6175565;23;19926;-90
2023/10/15 08:14:33;;;;;;;;;;;;;;;;;;6173956;23;20344;-90
2023/10/15 08:16:59;;;;;;;;;;;;;;;;;;6146027;23;19919;-91
2023/10/15 08:19:25;;;;;;;;;;;;;;;;;;6145549;23;19959;-90
2023/10/15 08:21:51;;;;;;;;;;;;;;;;;;6170062;23;19919;-90
2023/10/15 08:24:17;;;;;;;;;;;;;;;;;;6146533;23;19920;-90
2023/10/15 08:26:43;;;;;;;;;;;;;;;;;;6169881;23;19922;-90
2023/10/15 08:29:09;;;;;;;;;;;;;;;;;;6151260;23;19920;-90
2023/10/15 08:31:35;;;;;;;;;;;;;;;;;;6147520;23;19920;-90
2023/10/15 08:34:01;;;;;;;;;;;;;;;;;;6174890;23;20380;-90
2023/10/15 08:36:27;;;;;;;;;;;;;;;;;;6171832;23;19926;-91
2023/10/15 08:38:53;;;;;;;;;;;;;;;;;;6168787;23;19973;-91
2023/10/15 08:41:19;;;;;;;;;;;;;;;;;;6149594;23;19927;-90
2023/10/15 08:43:46;;;;;;;;;;;;;;;;;;6170083;23;20246;-90
2023/10/15 08:46:12;;;;;;;;;;;;;;;;;;6174166;23;19927;-90
2023/10/15 08:48:38;;;;;;;;;;;;;;;;;;6170640;23;19920;-90
2023/10/15 08:51:04;;;;;;;;;;;;;;;;;;6147160;23;20315;-91
2023/10/15 08:53:30;;;;;;;;;;;;;;;;;;6171162;23;19920;-90
2023/10/15 08:55:59;;;;;;;;;;;;;;;;;;6145456;23;20023;-90
2023/10/15 08:58:25;;;;;;;;;;;;;;;;;;6146883;23;19924;-90
2023/10/15 09:00:50;;;;;;;;;;;;;;;;;;6166150;23;20078;-95
2023/10/15 09:03:17;;;;;;;;;;;;;;;;;;6173473;23;20471;-96
2023/10/15 09:05:43;;;;;;;;;;;;;;;;;;6154590;23;19978;-95
2023/10/15 09:08:09;;;;;;;;;;;;;;;;;;6163672;23;20313;-95
2023/10/15 09:10:36;;;;;;;;;;;;;;;;;;6150512;23;19920;-93
2023/10/15 09:13:02;;;;;;;;;;;;;;;;;;6174228;23;19920;-92
2023/10/15 09:15:30;;;;;;;;;;;;;;;;;;6149138;23;19931;-92
2023/10/15 09:17:55;;;;;;;;;;;;;;;;;;6166677;23;20019;-92
2023/10/15 09:20:26;;;;;;;;;;;;;;;;;;6146123;23;20719;-92
2023/10/15 09:22:52;;;;;;;;;;;;;;;;;;6171852;23;19927;-92
2023/10/15 09:25:18;;;;;;;;;;;;;;;;;;6174820;23;20253;-92
2023/10/15 09:27:44;;;;;;;;;;;;;;;;;;6168401;23;19920;-92
2023/10/15 09:30:18;;;;;;;;;;;;;;;;;;6169529;23;19927;-92
2023/10/15 09:32:44;;;;;;;;;;;;;;;;;;6142815;23;20124;-92
2023/10/15 09:35:13;;;;;;;;;;;;;;;;;;6171222;23;19930;-92
2023/10/15 09:37:39;;;;;;;;;;;;;;;;;;6146435;23;19923;-92
2023/10/15 09:40:09;;;;;;;;;;;;;;;;;;6146527;23;19916;-92
2023/10/15 09:42:35;;;;;;;;;;;;;;;;;;6171804;23;19919;-92
2023/10/15 09:45:02;;;;;;;;;;;;;;;;;;6169354;23;19977;-91
2023/10/15 09:47:28;;;;;;;;;;;;;;;;;;6148536;23;19998;-92
2023/10/15 09:49:54;;;;;;;;;;;;;;;;;;6169596;23;20372;-95
2023/10/15 09:52:20;;;;;;;;;;;;;;;;;;6149302;23;19994;-92
2023/10/15 09:54:46;;;;;;;;;;;;;;;;;;6172477;23;19960;-91
2023/10/15 09:57:12;;;;;;;;;;;;;;;;;;6173505;23;19962;-94
2023/10/15 09:59:38;;;;;;;;;;;;;;;;;;6168939;23;19927;-92
2023/10/15 10:02:07;;;;;;;;;;;;;;;;;;6170302;23;19931;-93
2023/10/15 10:04:40;;;;;;;;;;;;;;;;;;6169958;23;19991;-93
2023/10/15 10:07:09;;;;;;;;;;;;;;;;;;6144284;23;19927;-93
2023/10/15 10:09:38;;;;;;;;;;;;;;;;;;6144879;23;19924;-92
2023/10/15 10:12:05;;;;;;;;;;;;;;;;;;6171483;23;19962;-92
2023/10/15 10:14:32;;;;;;;;;;;;;;;;;;6146787;23;20001;-92
2023/10/15 10:16:58;;;;;;;;;;;;;;;;;;6144705;23;19926;-92
2023/10/15 10:19:27;;;;;;;;;;;;;;;;;;6172502;23;19970;-92
2023/10/15 10:21:58;;;;;;;;;;;;;;;;;;6142270;23;20307;-93
2023/10/15 10:24:24;;;;;;;;;;;;;;;;;;6145645;23;20404;-93
2023/10/15 10:26:50;;;;;;;;;;;;;;;;;;6144230;23;19926;-92
2023/10/15 10:29:19;;;;;;;;;;;;;;;;;;6143116;23;19919;-93
2023/10/15 10:31:45;;;;;;;;;;;;;;;;;;6137254;23;19930;-93
2023/10/15 10:34:14;;;;;;;;;;;;;;;;;;6145038;23;19924;-92
2023/10/15 10:41:54;;;;;;;;;;;;;;;;;;6170474;23;20035;-88
2023/10/15 10:44:41;;;;;;;;;;;;;;;;;;6124440;23;19956;-89
2023/10/15 11:05:11;;;;;;;;;;;;;;;;;;;;;
2023/10/15 11:31:44;;;;;;;;;;;;;;;;;;;;;
2023/10/15 11:44:36;;;;;;;;;;;;;;;;;;;;;
2023/10/15 11:49:57;;;;;;;;;;;;;;;;;;6197952;23;19919;-89
2023/10/15 11:52:42;;;;;;;;;;;;;;;;;;;;;
2023/10/15 11:55:29;;;;;;;;;;;;;;;;;;6175025;23;20675;-90
2023/10/15 12:04:15;;;;;;;;;;;;;;;;;;6061857;23;19921;-88
2023/10/15 12:07:00;;;;;;;;;;;;;;;;;;6048039;23;20035;-88
2023/10/15 12:12:47;;;;;;;;;;;;;;;;;;6188403;23;19920;-88
2023/10/15 12:15:17;;;;;;;;;;;;;;;;;;6222868;23;19924;-88
2023/10/15 12:17:57;;;;;;;;;;;;;;;;;;6218952;23;19919;-88
2023/10/15 12:27:05;;;;;;;;;;;;;;;;;;6126894;23;19924;-87
2023/10/15 13:17:16;;;;;;;;;;;;;;;;;;6124481;23;19925;-89
2023/10/15 13:25:47;;;;;;;;;;;;;;;;;;6143782;23;19978;-88
2023/10/15 13:32:41;;;;;;;;;;;;;;;;;;6024114;23;19958;-88
2023/10/15 13:34:46;;;;;;;;;;;;;;;;;;6031196;23;19964;-88
2023/10/15 13:37:33;;;;;;;;;;;;;;;;;;;;;
2023/10/15 13:43:38;;;;;;;;;;;;;;;;;;6039603;23;19922;-88
2023/10/15 13:59:27;;;;;;;;;;;;;;;;;;6185645;23;20009;-87
2023/10/15 14:02:23;;;;;;;;;;;;;;;;;;6177863;23;20300;-90
2023/10/15 14:07:48;;;;;;;;;;;;;;;;;;6175349;23;19920;-90
2023/10/15 14:10:30;;;;;;;;;;;;;;;;;;6152583;23;19983;-90
2023/10/15 14:13:09;;;;;;;;;;;;;;;;;;;;;
2023/10/15 14:16:03;;;;;;;;;;;;;;;;;;;;;
2023/10/15 14:19:00;;;;;;;;;;;;;;;;;;6168577;23;20361;-90
2023/10/15 14:21:57;;;;;;;;;;;;;;;;;;6198927;23;19920;-91
2023/10/15 14:24:33;;;;;;;;;;;;;;;;;;6174567;23;20350;-91
2023/10/15 14:27:17;;;;;;;;;;;;;;;;;;6167535;23;19926;-92
2023/10/15 14:29:50;;;;;;;;;;;;;;;;;;6166101;23;19943;-90
2023/10/15 14:32:30;;;;;;;;;;;;;;;;;;6184319;23;19966;-93
2023/10/15 14:35:22;;;;;;;;;;;;;;;;;;6173916;23;19926;-90
2023/10/15 14:38:00;;;;;;;;;;;;;;;;;;6152865;23;19959;-90
2023/10/15 14:40:50;;;;;;;;;;;;;;;;;;;;;
2023/10/15 15:22:21;;;;;;;;;;;;;;;;;;6057714;23;20268;-87
2023/10/15 15:25:13;;;;;;;;;;;;;;;;;;6080167;23;19992;-86
2023/10/15 15:34:00;;;;;;;;;;;;;;;;;;6078703;23;19933;-88
2023/10/15 15:36:42;;;;;;;;;;;;;;;;;;6033532;23;19921;-87
2023/10/15 15:42:56;;;;;;;;;;;;;;;;;;5939158;24;19919;-87
2023/10/15 16:14:58;;;;;;;;;;;;;;;;;;;;;
2023/10/15 16:18:01;;;;;;;;;;;;;;;;;;;;;
2023/10/15 16:23:45;;;;;;;;;;;;;;;;;;;;;
2023/10/15 16:45:18;;;;;;;;;;;;;;;;;;;;;
2023/10/15 16:48:24;;;;;;;;;;;;;;;;;;5939490;23;19922;-90
2023/10/15 16:50:59;;;;;;;;;;;;;;;;;;6020881;23;19928;-91
2023/10/15 16:53:46;;;;;;;;;;;;;;;;;;6019736;23;20438;-90
2023/10/15 16:56:34;;;;;;;;;;;;;;;;;;6107586;23;20244;-90
2023/10/15 16:59:12;;;;;;;;;;;;;;;;;;6149694;23;20325;-90
2023/10/15 17:04:41;;;;;;;;;;;;;;;;;;6195353;23;19927;-90
2023/10/15 17:07:18;;;;;;;;;;;;;;;;;;6197624;23;19920;-90
2023/10/15 17:09:47;;;;;;;;;;;;;;;;;;6173250;23;19921;-87
2023/10/15 17:12:22;;;;;;;;;;;;;;;;;;6197809;23;19970;-87
2023/10/15 17:14:54;;;;;;;;;;;;;;;;;;6170611;23;19923;-88
2023/10/15 17:17:32;;;;;;;;;;;;;;;;;;6174604;23;19985;-87
2023/10/15 17:26:09;;;;;;;;;;;;;;;;;;6107149;23;19994;-87
2023/10/15 17:35:33;;;;;;;;;;;;;;;;;;;;;
2023/10/15 17:47:28;;;;;;;;;;;;;;;;;;5969694;24;19979;-87
2023/10/15 18:09:10;;;;;;;;;;;;;;;;;;;;;
2023/10/15 18:15:19;;;;;;;;;;;;;;;;;;;;;
2023/10/15 18:39:59;;;;;;;;;;;;;;;;;;5958003;23;20397;-87
2023/10/15 18:42:55;;;;;;;;;;;;;;;;;;;;;
2023/10/15 18:46:06;;;;;;;;;;;;;;;;;;6002218;23;20259;-87
2023/10/15 18:49:06;;;;;;;;;;;;;;;;;;;;;
2023/10/15 18:55:18;;;;;;;;;;;;;;;;;;5955787;24;20400;-87
2023/10/15 19:04:26;;;;;;;;;;;;;;;;;;5944232;23;19963;-87
2023/10/15 19:26:55;;;;;;;;;;;;;;;;;;5879399;24;20374;-87
2023/10/15 19:48:42;;;;;;;;;;;;;;;;;;;;;
2023/10/15 20:12:12;;;;;;;;;;;;;;;;;;;;;
2023/10/15 21:10:43;;;;;;;;;;;;;;;;;;6145160;23;20736;31
2023/10/15 21:13:15;;;;;;;;;;;;;;;;;;6111003;23;19931;-86
2023/10/15 21:15:43;;;;;;;;;;;;;;;;;;6077347;23;19964;-86
2023/10/15 21:18:10;;;;;;;;;;;;;;;;;;6111133;23;19927;-86
2023/10/15 21:20:36;;;;;;;;;;;;;;;;;;6102447;23;19920;-86
2023/10/15 21:23:08;;;;;;;;;;;;;;;;;;6088952;23;19927;-86
2023/10/15 21:25:39;;;;;;;;;;;;;;;;;;6109288;23;19920;-86
2023/10/15 21:28:05;;;;;;;;;;;;;;;;;;6086983;23;20003;-86
2023/10/15 21:30:43;;;;;;;;;;;;;;;;;;6087186;23;20229;-86
2023/10/15 21:33:09;;;;;;;;;;;;;;;;;;6086467;23;19991;-86
2023/10/15 21:35:38;;;;;;;;;;;;;;;;;;6092038;23;19921;-86
2023/10/15 21:38:06;;;;;;;;;;;;;;;;;;6088851;23;19925;-86
2023/10/15 21:40:38;;;;;;;;;;;;;;;;;;6088650;23;20250;-86
2023/10/15 21:43:04;;;;;;;;;;;;;;;;;;6110959;23;20246;-86
2023/10/15 21:45:36;;;;;;;;;;;;;;;;;;6085759;23;20258;-86
2023/10/15 21:48:06;;;;;;;;;;;;;;;;;;6087894;23;20413;-86
2023/10/15 21:50:32;;;;;;;;;;;;;;;;;;6086792;23;19920;-86
2023/10/15 21:52:58;;;;;;;;;;;;;;;;;;6114058;23;19931;-86
2023/10/15 21:55:24;;;;;;;;;;;;;;;;;;6092735;23;19936;-86
2023/10/15 21:57:53;;;;;;;;;;;;;;;;;;6088891;23;20354;-86
2023/10/15 22:00:38;;;;;;;;;;;;;;;;;;6090414;23;19944;-86
2023/10/15 22:03:05;;;;;;;;;;;;;;;;;;6087656;23;20019;-86
2023/10/15 22:05:37;;;;;;;;;;;;;;;;;;6088965;23;19920;-86
2023/10/15 22:08:06;;;;;;;;;;;;;;;;;;6092764;23;19920;-86
2023/10/15 22:10:32;;;;;;;;;;;;;;;;;;6090007;23;19921;-86
2023/10/15 22:13:17;;;;;;;;;;;;;;;;;;6112630;23;19932;-86
2023/10/15 22:15:46;;;;;;;;;;;;;;;;;;6086702;23;19924;-86
2023/10/15 22:18:18;;;;;;;;;;;;;;;;;;6115062;23;19960;-86
2023/10/15 22:20:50;;;;;;;;;;;;;;;;;;6134176;23;20330;-86
2023/10/15 22:23:22;;;;;;;;;;;;;;;;;;6092982;23;20349;-86
2023/10/15 22:25:58;;;;;;;;;;;;;;;;;;;;;
2023/10/15 22:28:29;;;;;;;;;;;;;;;;;;6115353;23;19996;-86
2023/10/15 22:31:06;;;;;;;;;;;;;;;;;;6088703;23;19920;-86
2023/10/15 22:33:38;;;;;;;;;;;;;;;;;;6111674;23;19920;-87
2023/10/15 22:36:06;;;;;;;;;;;;;;;;;;6089691;23;20018;-86
2023/10/15 22:38:44;;;;;;;;;;;;;;;;;;6089224;23;20010;-86
2023/10/15 22:44:08;;;;;;;;;;;;;;;;;;6134081;23;19921;-86
2023/10/15 22:46:38;;;;;;;;;;;;;;;;;;6092887;23;19920;-86
2023/10/15 22:49:05;;;;;;;;;;;;;;;;;;6110718;23;19920;-86
2023/10/15 22:51:31;;;;;;;;;;;;;;;;;;6140568;23;20312;-86
2023/10/15 22:53:57;;;;;;;;;;;;;;;;;;6112012;23;19921;-86
2023/10/15 22:56:23;;;;;;;;;;;;;;;;;;6116065;23;19925;-86
2023/10/15 22:58:48;;;;;;;;;;;;;;;;;;6113242;23;19922;-86
2023/10/15 23:01:14;;;;;;;;;;;;;;;;;;6114780;23;19992;-86
2023/10/15 23:03:40;;;;;;;;;;;;;;;;;;6127380;23;19932;-86
2023/10/15 23:06:06;;;;;;;;;;;;;;;;;;6091219;23;19931;-86
2023/10/15 23:08:32;;;;;;;;;;;;;;;;;;6090932;23;20381;-86
2023/10/15 23:10:58;;;;;;;;;;;;;;;;;;6110245;23;20036;-86
2023/10/15 23:13:25;;;;;;;;;;;;;;;;;;6114121;23;19920;-86
2023/10/15 23:15:51;;;;;;;;;;;;;;;;;;6113897;23;19978;-86
2023/10/15 23:18:20;;;;;;;;;;;;;;;;;;6088711;23;19971;-86
2023/10/15 23:20:50;;;;;;;;;;;;;;;;;;6109326;23;19987;-86
2023/10/15 23:23:20;;;;;;;;;;;;;;;;;;6111299;23;20198;-86
2023/10/15 23:25:46;;;;;;;;;;;;;;;;;;6087047;23;19952;-86
2023/10/15 23:28:12;;;;;;;;;;;;;;;;;;6114991;23;19971;-86
2023/10/15 23:30:41;;;;;;;;;;;;;;;;;;6112605;23;19967;-86
2023/10/15 23:33:07;;;;;;;;;;;;;;;;;;6091718;23;19920;-86
2023/10/15 23:35:33;;;;;;;;;;;;;;;;;;6114445;23;19931;-86
2023/10/15 23:37:59;;;;;;;;;;;;;;;;;;6112821;23;19991;-86
2023/10/15 23:40:25;;;;;;;;;;;;;;;;;;6114521;23;20019;-86
2023/10/15 23:42:51;;;;;;;;;;;;;;;;;;6086439;23;20301;-86
2023/10/15 23:45:26;;;;;;;;;;;;;;;;;;6138494;23;19927;-86
2023/10/15 23:47:52;;;;;;;;;;;;;;;;;;6136663;23;19921;-86
2023/10/15 23:50:18;;;;;;;;;;;;;;;;;;6139760;23;19920;-86
2023/10/15 23:52:44;;;;;;;;;;;;;;;;;;6111924;23;19927;-86
2023/10/15 23:55:15;;;;;;;;;;;;;;;;;;6139655;23;19932;-86
2023/10/15 23:57:48;;;;;;;;;;;;;;;;;;6115764;23;19921;-86
